createdAt,value
2023-03-10T00:00:51.155Z,988.31
2023-03-10T00:01:51.143Z,988.34
2023-03-10T00:02:51.153Z,988.33
2023-03-10T00:03:51.156Z,988.32
2023-03-10T00:04:51.264Z,988.33
2023-03-10T00:05:51.260Z,988.26
2023-03-10T00:06:51.160Z,988.23
2023-03-10T00:07:51.154Z,988.20
2023-03-10T00:08:51.185Z,988.17
2023-03-10T00:09:51.154Z,988.16
2023-03-10T00:10:51.169Z,988.14
2023-03-10T00:11:51.180Z,988.10
2023-03-10T00:12:51.165Z,988.11
2023-03-10T00:13:51.167Z,988.07
2023-03-10T00:14:51.164Z,988.10
2023-03-10T00:15:51.244Z,988.08
2023-03-10T00:16:51.166Z,988.06
2023-03-10T00:17:51.180Z,987.99
2023-03-10T00:18:51.188Z,987.99
2023-03-10T00:19:51.175Z,987.93
2023-03-10T00:20:51.179Z,987.94
2023-03-10T00:21:51.172Z,987.91
2023-03-10T00:22:51.185Z,987.92
2023-03-10T00:23:51.186Z,987.89
2023-03-10T00:24:51.187Z,987.85
2023-03-10T00:25:51.186Z,987.84
2023-03-10T00:26:51.179Z,987.84
2023-03-10T00:27:51.324Z,987.85
2023-03-10T00:28:51.186Z,987.79
2023-03-10T00:29:51.204Z,987.77
2023-03-10T00:30:51.256Z,987.77
2023-03-10T00:31:51.196Z,987.74
2023-03-10T00:32:51.206Z,987.70
2023-03-10T00:33:51.191Z,987.64
2023-03-10T00:34:51.204Z,987.62
2023-03-10T00:35:51.230Z,987.58
2023-03-10T00:36:51.198Z,987.62
2023-03-10T00:37:51.200Z,987.59
2023-03-10T00:38:51.217Z,987.54
2023-03-10T00:39:51.213Z,987.52
2023-03-10T00:40:51.206Z,987.48
2023-03-10T00:41:51.208Z,987.47
2023-03-10T00:42:51.215Z,987.46
2023-03-10T00:43:51.245Z,987.50
2023-03-10T00:44:51.222Z,987.40
2023-03-10T00:45:51.344Z,987.37
2023-03-10T00:46:51.223Z,987.42
2023-03-10T00:47:51.225Z,987.40
2023-03-10T00:48:51.231Z,987.38
2023-03-10T00:49:51.221Z,987.36
2023-03-10T00:50:51.232Z,987.34
2023-03-10T00:51:51.228Z,987.28
2023-03-10T00:52:51.236Z,987.26
2023-03-10T00:53:51.265Z,987.20
2023-03-10T00:54:51.232Z,987.16
2023-03-10T00:55:51.242Z,987.15
2023-03-10T00:56:51.257Z,987.16
2023-03-10T00:57:51.244Z,987.10
2023-03-10T00:58:51.240Z,987.07
2023-03-10T00:59:51.272Z,987.04
2023-03-10T01:00:51.243Z,986.96
2023-03-10T01:01:51.356Z,986.98
2023-03-10T01:02:51.252Z,986.91
2023-03-10T01:03:51.246Z,986.91
2023-03-10T01:04:51.249Z,986.91
2023-03-10T01:05:51.257Z,986.82
2023-03-10T01:06:51.259Z,986.82
2023-03-10T01:07:51.254Z,986.80
2023-03-10T01:08:51.262Z,986.80
2023-03-10T01:09:51.257Z,986.76
2023-03-10T01:10:51.293Z,986.68
2023-03-10T01:11:51.262Z,986.71
2023-03-10T01:12:51.294Z,986.67
2023-03-10T01:13:51.263Z,986.62
2023-03-10T01:14:51.274Z,986.62
2023-03-10T01:15:51.402Z,986.62
2023-03-10T01:16:51.273Z,986.53
2023-03-10T01:17:51.297Z,986.48
2023-03-10T01:18:51.276Z,986.40
2023-03-10T01:19:51.279Z,986.37
2023-03-10T01:20:51.283Z,986.32
2023-03-10T01:21:51.286Z,986.30
2023-03-10T01:22:51.291Z,986.22
2023-03-10T01:23:51.287Z,986.26
2023-03-10T01:24:51.284Z,986.23
2023-03-10T01:25:51.282Z,986.25
2023-03-10T01:26:51.295Z,986.24
2023-03-10T01:27:51.288Z,986.21
2023-03-10T01:28:51.295Z,986.28
2023-03-10T01:29:51.292Z,986.21
2023-03-10T01:30:51.295Z,986.28
2023-03-10T01:31:51.328Z,986.23
2023-03-10T01:32:51.433Z,986.22
2023-03-10T01:33:51.329Z,986.15
2023-03-10T01:34:51.302Z,986.15
2023-03-10T01:35:51.331Z,986.18
2023-03-10T01:36:51.301Z,986.14
2023-03-10T01:37:51.316Z,986.13
2023-03-10T01:38:51.316Z,986.11
2023-03-10T01:39:51.308Z,986.08
2023-03-10T01:40:51.310Z,986.09
2023-03-10T01:41:51.318Z,986.07
2023-03-10T01:42:51.322Z,986.05
2023-03-10T01:43:51.314Z,986.01
2023-03-10T01:44:51.316Z,985.95
2023-03-10T01:45:51.338Z,985.95
2023-03-10T01:46:51.404Z,985.92
2023-03-10T01:47:51.351Z,985.92
2023-03-10T01:48:51.334Z,985.92
2023-03-10T01:49:51.323Z,985.86
2023-03-10T01:50:51.335Z,985.86
2023-03-10T01:51:51.360Z,985.83
2023-03-10T01:52:51.338Z,985.83
2023-03-10T01:53:51.330Z,985.82
2023-03-10T01:54:51.343Z,985.74
2023-03-10T01:55:51.334Z,985.76
2023-03-10T01:56:51.340Z,985.71
2023-03-10T01:57:51.353Z,985.72
2023-03-10T01:58:51.339Z,985.68
2023-03-10T01:59:51.339Z,985.67
2023-03-10T02:00:51.399Z,985.67
2023-03-10T02:01:51.464Z,985.62
2023-03-10T02:02:51.352Z,985.61
2023-03-10T02:03:51.368Z,985.56
2023-03-10T02:04:51.357Z,985.58
2023-03-10T02:05:51.363Z,985.54
2023-03-10T02:06:51.354Z,985.54
2023-03-10T02:07:51.362Z,985.52
2023-03-10T02:08:51.357Z,985.45
2023-03-10T02:09:51.357Z,985.47
2023-03-10T02:10:51.369Z,985.45
2023-03-10T02:11:51.371Z,985.44
2023-03-10T02:12:51.372Z,985.44
2023-03-10T02:13:51.568Z,985.45
2023-03-10T02:14:51.382Z,985.38
2023-03-10T02:15:51.506Z,985.37
2023-03-10T02:16:51.380Z,985.31
2023-03-10T02:17:51.422Z,985.27
2023-03-10T02:18:51.385Z,985.27
2023-03-10T02:19:51.402Z,985.29
2023-03-10T02:20:51.379Z,985.23
2023-03-10T02:21:51.382Z,985.21
2023-03-10T02:22:51.394Z,985.22
2023-03-10T02:24:00.899Z,985.20
2023-03-10T02:24:51.389Z,985.15
2023-03-10T02:25:51.400Z,985.13
2023-03-10T02:26:51.392Z,985.12
2023-03-10T02:27:51.402Z,985.14
2023-03-10T02:28:51.396Z,985.12
2023-03-10T02:29:59.216Z,985.12
2023-03-10T02:30:51.410Z,985.08
2023-03-10T02:31:51.512Z,985.01
2023-03-10T02:32:51.534Z,984.96
2023-03-10T02:33:51.408Z,984.98
2023-03-10T02:34:51.415Z,984.95
2023-03-10T02:35:51.478Z,984.93
2023-03-10T02:36:51.422Z,984.87
2023-03-10T02:37:51.420Z,984.85
2023-03-10T02:38:51.416Z,984.79
2023-03-10T02:39:51.422Z,984.77
2023-03-10T02:40:51.420Z,984.74
2023-03-10T02:41:51.421Z,984.71
2023-03-10T02:42:51.431Z,984.70
2023-03-10T02:43:51.423Z,984.66
2023-03-10T02:44:51.431Z,984.66
2023-03-10T02:45:51.548Z,984.69
2023-03-10T02:46:51.430Z,984.68
2023-03-10T02:47:51.433Z,984.65
2023-03-10T02:48:51.446Z,984.64
2023-03-10T02:49:51.444Z,984.61
2023-03-10T02:50:51.436Z,984.60
2023-03-10T02:51:51.459Z,984.57
2023-03-10T02:52:51.440Z,984.57
2023-03-10T02:53:51.440Z,984.51
2023-03-10T02:54:51.444Z,984.47
2023-03-10T02:55:51.454Z,984.47
2023-03-10T02:56:51.457Z,984.44
2023-03-10T02:57:51.456Z,984.45
2023-03-10T02:58:51.463Z,984.40
2023-03-10T02:59:51.459Z,984.41
2023-03-10T03:00:51.553Z,984.42
2023-03-10T03:01:51.466Z,984.40
2023-03-10T03:02:51.466Z,984.41
2023-03-10T03:03:51.530Z,984.39
2023-03-10T03:04:51.463Z,984.36
2023-03-10T03:05:51.473Z,984.35
2023-03-10T03:06:51.467Z,984.31
2023-03-10T03:07:51.498Z,984.28
2023-03-10T03:08:51.470Z,984.25
2023-03-10T03:09:54.104Z,984.23
2023-03-10T03:10:51.475Z,984.21
2023-03-10T03:11:51.488Z,984.14
2023-03-10T03:12:51.494Z,984.15
2023-03-10T03:13:51.479Z,984.10
2023-03-10T03:14:51.490Z,984.11
2023-03-10T03:15:52.908Z,984.11
2023-03-10T03:16:51.556Z,984.04
2023-03-10T03:17:51.510Z,984.02
2023-03-10T03:18:51.499Z,984.03
2023-03-10T03:19:51.492Z,983.97
2023-03-10T03:20:51.505Z,983.95
2023-03-10T03:21:51.502Z,983.89
2023-03-10T03:22:51.508Z,983.94
2023-03-10T03:23:51.639Z,983.93
2023-03-10T03:24:51.501Z,983.86
2023-03-10T03:25:51.501Z,983.84
2023-03-10T03:26:51.522Z,983.84
2023-03-10T03:27:51.516Z,983.87
2023-03-10T03:29:34.053Z,983.85
2023-03-10T03:30:34.061Z,983.79
2023-03-10T03:31:34.092Z,983.79
2023-03-10T03:32:34.131Z,983.79
2023-03-10T03:33:34.061Z,983.74
2023-03-10T03:34:34.057Z,983.64
2023-03-10T03:35:34.916Z,983.67
2023-03-10T03:36:34.068Z,983.61
2023-03-10T03:37:34.072Z,983.58
2023-03-10T03:38:34.072Z,983.59
2023-03-10T03:39:34.170Z,983.56
2023-03-10T03:40:34.067Z,983.53
2023-03-10T03:41:34.067Z,983.49
2023-03-10T03:42:34.076Z,983.46
2023-03-10T03:43:34.079Z,983.46
2023-03-10T03:44:34.075Z,983.40
2023-03-10T03:45:34.076Z,983.42
2023-03-10T03:46:34.236Z,983.37
2023-03-10T03:47:34.089Z,983.39
2023-03-10T03:48:34.088Z,983.37
2023-03-10T03:49:34.091Z,983.38
2023-03-10T03:50:34.092Z,983.38
2023-03-10T03:52:16.634Z,983.33
2023-03-10T03:53:16.636Z,983.35
2023-03-10T03:54:16.629Z,983.31
2023-03-10T03:55:16.666Z,983.29
2023-03-10T03:56:16.641Z,983.25
2023-03-10T03:57:16.657Z,983.24
2023-03-10T03:58:16.637Z,983.24
2023-03-10T03:59:18.064Z,983.24
2023-03-10T04:00:16.660Z,983.21
2023-03-10T04:01:16.646Z,983.19
2023-03-10T04:02:16.757Z,983.10
2023-03-10T04:03:16.678Z,983.11
2023-03-10T04:04:16.657Z,983.08
2023-03-10T04:05:16.655Z,983.11
2023-03-10T04:06:16.665Z,983.04
2023-03-10T04:07:16.665Z,983.03
2023-03-10T04:08:16.664Z,983.05
2023-03-10T04:09:16.668Z,983.01
2023-03-10T04:10:16.675Z,982.98
2023-03-10T04:11:16.693Z,982.98
2023-03-10T04:12:16.687Z,983.00
2023-03-10T04:13:16.675Z,982.96
2023-03-10T04:14:16.669Z,982.90
2023-03-10T04:15:16.679Z,982.92
2023-03-10T04:16:16.807Z,982.93
2023-03-10T04:17:16.694Z,982.92
2023-03-10T04:18:16.687Z,982.89
2023-03-10T04:19:16.677Z,982.87
2023-03-10T04:20:16.687Z,982.89
2023-03-10T04:21:16.689Z,982.84
2023-03-10T04:22:16.692Z,982.85
2023-03-10T04:23:16.692Z,982.84
2023-03-10T04:24:16.695Z,982.86
2023-03-10T04:25:16.688Z,982.80
2023-03-10T04:26:16.698Z,982.79
2023-03-10T04:27:16.713Z,982.79
2023-03-10T04:28:16.700Z,982.74
2023-03-10T04:29:16.705Z,982.74
2023-03-10T04:30:16.712Z,982.74
2023-03-10T04:31:16.904Z,982.70
2023-03-10T04:32:16.765Z,982.68
2023-03-10T04:33:16.705Z,982.69
2023-03-10T04:34:16.707Z,982.72
2023-03-10T04:35:16.719Z,982.71
2023-03-10T04:36:16.817Z,982.71
2023-03-10T04:37:16.732Z,982.71
2023-03-10T04:38:16.715Z,982.70
2023-03-10T04:39:16.719Z,982.65
2023-03-10T04:40:16.716Z,982.67
2023-03-10T04:41:16.726Z,982.64
2023-03-10T04:42:16.728Z,982.63
2023-03-10T04:43:16.746Z,982.58
2023-03-10T04:44:29.800Z,982.57
2023-03-10T04:45:16.738Z,982.55
2023-03-10T04:46:16.771Z,982.55
2023-03-10T04:47:16.746Z,982.48
2023-03-10T04:48:16.744Z,982.50
2023-03-10T04:49:16.749Z,982.43
2023-03-10T04:50:16.751Z,982.41
2023-03-10T04:51:16.752Z,982.42
2023-03-10T04:52:16.746Z,982.38
2023-03-10T04:53:16.747Z,982.34
2023-03-10T04:54:16.756Z,982.37
2023-03-10T04:55:16.759Z,982.37
2023-03-10T04:56:16.759Z,982.30
2023-03-10T04:57:16.772Z,982.34
2023-03-10T04:58:16.758Z,982.26
2023-03-10T04:59:16.784Z,982.22
2023-03-10T05:00:16.840Z,982.28
2023-03-10T05:01:16.809Z,982.27
2023-03-10T05:02:16.766Z,982.27
2023-03-10T05:03:16.764Z,982.28
2023-03-10T05:04:16.851Z,982.24
2023-03-10T05:05:16.785Z,982.20
2023-03-10T05:06:16.773Z,982.19
2023-03-10T05:07:16.772Z,982.18
2023-03-10T05:08:16.782Z,982.16
2023-03-10T05:09:16.774Z,982.16
2023-03-10T05:10:16.788Z,982.16
2023-03-10T05:11:16.784Z,982.12
2023-03-10T05:12:16.782Z,982.13
2023-03-10T05:13:16.781Z,982.13
2023-03-10T05:14:16.785Z,982.13
2023-03-10T05:15:16.813Z,982.10
2023-03-10T05:16:16.867Z,982.07
2023-03-10T05:17:16.797Z,982.04
2023-03-10T05:18:16.794Z,982.03
2023-03-10T05:19:16.792Z,982.00
2023-03-10T05:20:16.796Z,982.00
2023-03-10T05:21:16.810Z,981.97
2023-03-10T05:22:16.800Z,981.93
2023-03-10T05:23:16.805Z,981.93
2023-03-10T05:24:16.805Z,981.95
2023-03-10T05:25:16.811Z,981.95
2023-03-10T05:26:16.814Z,981.95
2023-03-10T05:27:16.810Z,981.93
2023-03-10T05:28:16.819Z,981.97
2023-03-10T05:29:16.821Z,981.91
2023-03-10T05:30:16.822Z,981.91
2023-03-10T05:31:16.990Z,981.97
2023-03-10T05:32:16.948Z,981.91
2023-03-10T05:33:16.829Z,981.89
2023-03-10T05:34:16.837Z,981.92
2023-03-10T05:35:16.828Z,981.89
2023-03-10T05:36:16.848Z,981.92
2023-03-10T05:37:16.837Z,981.91
2023-03-10T05:38:16.836Z,981.88
2023-03-10T05:39:16.837Z,981.88
2023-03-10T05:40:16.846Z,981.88
2023-03-10T05:41:16.841Z,981.87
2023-03-10T05:42:16.853Z,981.84
2023-03-10T05:43:17.833Z,981.89
2023-03-10T05:44:16.867Z,981.83
2023-03-10T05:45:16.850Z,981.88
2023-03-10T05:46:16.905Z,981.89
2023-03-10T05:47:16.988Z,981.83
2023-03-10T05:48:16.865Z,981.86
2023-03-10T05:49:16.863Z,981.84
2023-03-10T05:50:16.877Z,981.86
2023-03-10T05:51:16.876Z,981.82
2023-03-10T05:52:16.874Z,981.77
2023-03-10T05:53:16.877Z,981.80
2023-03-10T05:54:16.874Z,981.79
2023-03-10T05:55:16.881Z,981.81
2023-03-10T05:56:16.892Z,981.81
2023-03-10T05:57:16.885Z,981.77
2023-03-10T05:58:16.884Z,981.77
2023-03-10T05:59:16.895Z,981.78
2023-03-10T06:00:16.907Z,981.80
2023-03-10T06:01:16.888Z,981.76
2023-03-10T06:02:16.905Z,981.82
2023-03-10T06:03:17.151Z,981.78
2023-03-10T06:04:16.938Z,981.74
2023-03-10T06:05:16.914Z,981.78
2023-03-10T06:06:16.909Z,981.80
2023-03-10T06:07:16.903Z,981.81
2023-03-10T06:08:16.906Z,981.80
2023-03-10T06:09:16.915Z,981.82
2023-03-10T06:10:16.921Z,981.80
2023-03-10T06:11:16.935Z,981.76
2023-03-10T06:12:16.916Z,981.78
2023-03-10T06:13:16.929Z,981.76
2023-03-10T06:14:16.921Z,981.79
2023-03-10T06:15:16.931Z,981.79
2023-03-10T06:16:16.963Z,981.80
2023-03-10T06:17:19.433Z,981.81
2023-03-10T06:18:16.934Z,981.83
2023-03-10T06:19:16.956Z,981.87
2023-03-10T06:20:16.943Z,981.85
2023-03-10T06:21:16.946Z,981.82
2023-03-10T06:22:59.492Z,981.89
2023-03-10T06:23:59.485Z,981.90
2023-03-10T06:24:59.493Z,981.88
2023-03-10T06:25:59.502Z,981.96
2023-03-10T06:26:59.492Z,981.97
2023-03-10T06:27:59.502Z,982.01
2023-03-10T06:28:59.500Z,982.06
2023-03-10T06:29:59.514Z,982.04
2023-03-10T06:30:59.516Z,982.09
2023-03-10T06:31:59.567Z,982.11
2023-03-10T06:32:59.537Z,982.14
2023-03-10T06:33:59.519Z,982.19
2023-03-10T06:34:59.553Z,982.17
2023-03-10T06:35:59.586Z,982.20
2023-03-10T06:36:59.521Z,982.23
2023-03-10T06:37:59.736Z,982.24
2023-03-10T06:38:59.547Z,982.21
2023-03-10T06:39:59.543Z,982.25
2023-03-10T06:41:59.543Z,982.38
2023-03-10T06:42:59.542Z,982.38
2023-03-10T06:43:59.550Z,982.39
2023-03-10T06:44:59.554Z,982.38
2023-03-10T06:45:59.574Z,982.42
2023-03-10T06:46:59.558Z,982.46
2023-03-10T06:47:59.575Z,982.48
2023-03-10T06:48:59.558Z,982.45
2023-03-10T06:49:59.564Z,982.40
2023-03-10T06:50:59.637Z,982.46
2023-03-10T06:51:59.568Z,982.39
2023-03-10T06:52:59.575Z,982.45
2023-03-10T06:53:59.575Z,982.49
2023-03-10T06:54:59.574Z,982.47
2023-03-10T06:55:59.587Z,982.45
2023-03-10T06:57:59.581Z,982.39
2023-03-10T06:58:59.588Z,982.35
2023-03-10T06:59:59.598Z,982.34
2023-03-10T07:00:59.609Z,982.33
2023-03-10T07:02:59.605Z,982.30
2023-03-10T07:03:59.606Z,982.35
2023-03-10T07:04:59.658Z,982.34
2023-03-10T07:06:00.873Z,982.41
2023-03-10T07:06:59.685Z,982.45
2023-03-10T07:07:59.607Z,982.45
2023-03-10T07:08:59.610Z,982.48
2023-03-10T07:09:59.618Z,982.51
2023-03-10T07:10:59.618Z,982.51
2023-03-10T07:11:59.622Z,982.53
2023-03-10T07:12:59.617Z,982.53
2023-03-10T07:13:59.629Z,982.55
2023-03-10T07:14:59.825Z,982.53
2023-03-10T07:15:59.626Z,982.54
2023-03-10T07:17:42.176Z,982.50
2023-03-10T07:18:42.170Z,982.51
2023-03-10T07:19:42.178Z,982.51
2023-03-10T07:20:42.183Z,982.53
2023-03-10T07:21:42.192Z,982.52
2023-03-10T07:22:42.209Z,982.58
2023-03-10T07:23:42.192Z,982.60
2023-03-10T07:24:42.186Z,982.63
2023-03-10T07:25:42.193Z,982.68
2023-03-10T07:26:42.199Z,982.71
2023-03-10T07:27:45.626Z,982.75
2023-03-10T07:28:42.208Z,982.74
2023-03-10T07:29:42.211Z,982.75
2023-03-10T07:30:42.471Z,982.80
2023-03-10T07:31:43.618Z,982.80
2023-03-10T07:32:42.234Z,982.81
2023-03-10T07:33:44.832Z,982.85
2023-03-10T07:34:42.222Z,982.83
2023-03-10T07:35:42.242Z,982.78
2023-03-10T07:36:42.228Z,982.78
2023-03-10T07:37:42.227Z,982.75
2023-03-10T07:39:24.842Z,982.72
2023-03-10T07:40:24.848Z,982.74
2023-03-10T07:41:24.772Z,982.78
2023-03-10T07:42:24.788Z,982.80
2023-03-10T07:43:24.787Z,982.77
2023-03-10T07:44:24.785Z,982.73
2023-03-10T07:45:24.791Z,982.76
2023-03-10T07:46:24.880Z,982.77
2023-03-10T07:47:24.800Z,982.74
2023-03-10T07:48:24.803Z,982.74
2023-03-10T07:49:24.807Z,982.70
2023-03-10T07:50:24.799Z,982.72
2023-03-10T07:51:24.809Z,982.72
2023-03-10T07:52:24.825Z,982.76
2023-03-10T07:53:25.217Z,982.77
2023-03-10T07:54:24.809Z,982.81
2023-03-10T07:55:24.839Z,982.77
2023-03-10T07:56:24.831Z,982.75
2023-03-10T07:57:24.827Z,982.83
2023-03-10T07:58:24.829Z,982.80
2023-03-10T07:59:24.833Z,982.81
2023-03-10T08:00:24.836Z,982.81
2023-03-10T08:01:24.832Z,982.76
2023-03-10T08:02:24.834Z,982.77
2023-03-10T08:03:24.886Z,982.77
2023-03-10T08:04:25.425Z,982.78
2023-03-10T08:05:24.892Z,982.78
2023-03-10T08:06:24.850Z,982.84
2023-03-10T08:07:24.851Z,982.82
2023-03-10T08:08:24.863Z,982.80
2023-03-10T08:09:24.856Z,982.83
2023-03-10T08:10:24.876Z,982.86
2023-03-10T08:11:24.944Z,982.84
2023-03-10T08:12:24.870Z,982.91
2023-03-10T08:13:24.905Z,982.89
2023-03-10T08:14:24.880Z,982.86
2023-03-10T08:15:24.877Z,982.86
2023-03-10T08:16:25.028Z,982.86
2023-03-10T08:17:24.884Z,982.89
2023-03-10T08:18:24.889Z,982.92
2023-03-10T08:19:24.889Z,982.89
2023-03-10T08:20:24.897Z,982.89
2023-03-10T08:21:24.900Z,982.94
2023-03-10T08:22:24.914Z,982.92
2023-03-10T08:23:24.905Z,982.95
2023-03-10T08:24:24.906Z,982.92
2023-03-10T08:25:24.920Z,982.89
2023-03-10T08:26:24.926Z,982.92
2023-03-10T08:27:25.262Z,982.90
2023-03-10T08:28:24.934Z,982.91
2023-03-10T08:29:24.924Z,982.95
2023-03-10T08:30:24.966Z,982.96
2023-03-10T08:31:24.975Z,982.95
2023-03-10T08:32:25.023Z,982.97
2023-03-10T08:33:24.945Z,982.97
2023-03-10T08:34:24.944Z,982.97
2023-03-10T08:35:24.946Z,982.98
2023-03-10T08:36:24.948Z,982.99
2023-03-10T08:37:24.954Z,983.02
2023-03-10T08:38:24.954Z,983.01
2023-03-10T08:39:27.315Z,983.03
2023-03-10T08:40:24.969Z,983.04
2023-03-10T08:41:24.972Z,983.04
2023-03-10T08:42:24.985Z,983.09
2023-03-10T08:43:25.035Z,983.08
2023-03-10T08:44:24.976Z,983.10
2023-03-10T08:45:24.990Z,983.08
2023-03-10T08:46:25.106Z,983.12
2023-03-10T08:47:28.091Z,983.06
2023-03-10T08:48:24.999Z,983.08
2023-03-10T08:49:25.002Z,983.08
2023-03-10T08:50:25.001Z,983.08
2023-03-10T08:51:25.013Z,983.08
2023-03-10T08:52:25.018Z,983.15
2023-03-10T08:53:25.012Z,983.10
2023-03-10T08:54:25.023Z,983.06
2023-03-10T08:55:25.059Z,983.07
2023-03-10T08:56:25.029Z,983.12
2023-03-10T08:57:25.028Z,983.15
2023-03-10T08:58:25.038Z,983.13
2023-03-10T08:59:25.182Z,983.13
2023-03-10T09:00:25.038Z,983.16
2023-03-10T09:01:25.042Z,983.16
2023-03-10T09:02:25.112Z,983.18
2023-03-10T09:03:25.080Z,983.22
2023-03-10T09:04:25.064Z,983.20
2023-03-10T09:05:25.073Z,983.23
2023-03-10T09:06:25.075Z,983.25
2023-03-10T09:07:25.065Z,983.28
2023-03-10T09:08:27.454Z,983.30
2023-03-10T09:09:25.073Z,983.30
2023-03-10T09:10:25.134Z,983.31
2023-03-10T09:11:25.084Z,983.32
2023-03-10T09:12:26.919Z,983.32
2023-03-10T09:13:25.092Z,983.32
2023-03-10T09:14:25.101Z,983.36
2023-03-10T09:15:25.131Z,983.34
2023-03-10T09:16:25.173Z,983.32
2023-03-10T09:17:25.108Z,983.31
2023-03-10T09:18:25.113Z,983.36
2023-03-10T09:19:25.124Z,983.39
2023-03-10T09:20:26.680Z,983.38
2023-03-10T09:21:25.127Z,983.36
2023-03-10T09:22:25.136Z,983.37
2023-03-10T09:23:25.134Z,983.40
2023-03-10T09:24:25.151Z,983.46
2023-03-10T09:25:25.157Z,983.45
2023-03-10T09:26:25.146Z,983.44
2023-03-10T09:27:25.150Z,983.42
2023-03-10T09:28:25.159Z,983.39
2023-03-10T09:29:42.041Z,983.40
2023-03-10T09:30:25.162Z,983.41
2023-03-10T09:31:25.241Z,983.40
2023-03-10T09:32:25.375Z,983.37
2023-03-10T09:33:25.181Z,983.42
2023-03-10T09:34:25.184Z,983.45
2023-03-10T09:35:25.253Z,983.45
2023-03-10T09:36:25.270Z,983.46
2023-03-10T09:37:25.216Z,983.48
2023-03-10T09:38:25.235Z,983.52
2023-03-10T09:39:25.216Z,983.55
2023-03-10T09:40:25.218Z,983.54
2023-03-10T09:41:25.238Z,983.52
2023-03-10T09:42:36.342Z,983.60
2023-03-10T09:43:25.243Z,983.66
2023-03-10T09:44:25.253Z,983.66
2023-03-10T09:45:25.252Z,983.66
2023-03-10T09:46:25.257Z,983.63
2023-03-10T09:47:25.283Z,983.60
2023-03-10T09:48:26.419Z,983.61
2023-03-10T09:49:25.276Z,983.59
2023-03-10T09:50:25.265Z,983.64
2023-03-10T09:51:25.275Z,983.63
2023-03-10T09:52:25.274Z,983.56
2023-03-10T09:53:25.281Z,983.63
2023-03-10T09:54:25.296Z,983.66
2023-03-10T09:55:25.308Z,983.62
2023-03-10T09:56:25.295Z,983.51
2023-03-10T09:57:25.310Z,983.62
2023-03-10T09:58:25.302Z,983.64
2023-03-10T09:59:25.317Z,983.69
2023-03-10T10:00:25.320Z,983.63
2023-03-10T10:01:25.316Z,983.64
2023-03-10T10:02:25.334Z,983.71
2023-03-10T10:03:25.451Z,983.75
2023-03-10T10:04:25.475Z,983.74
2023-03-10T10:05:25.338Z,983.60
2023-03-10T10:06:28.168Z,983.59
2023-03-10T10:07:25.353Z,983.69
2023-03-10T10:08:28.459Z,983.80
2023-03-10T10:09:25.384Z,983.71
2023-03-10T10:10:25.368Z,983.63
2023-03-10T10:11:25.376Z,983.75
2023-03-10T10:12:25.399Z,983.87
2023-03-10T10:13:25.384Z,983.80
2023-03-10T10:14:30.078Z,983.75
2023-03-10T10:15:25.404Z,983.86
2023-03-10T10:16:34.358Z,983.88
2023-03-10T10:17:25.520Z,983.79
2023-03-10T10:18:26.002Z,983.76
2023-03-10T10:19:25.430Z,983.79
2023-03-10T10:20:25.421Z,983.85
2023-03-10T10:21:28.134Z,983.93
2023-03-10T10:22:25.432Z,983.89
2023-03-10T10:23:25.439Z,983.86
2023-03-10T10:24:25.445Z,983.89
2023-03-10T10:25:25.442Z,983.89
2023-03-10T10:26:25.453Z,983.84
2023-03-10T10:27:25.638Z,983.86
2023-03-10T10:28:25.465Z,983.88
2023-03-10T10:29:25.503Z,983.93
2023-03-10T10:30:26.891Z,983.92
2023-03-10T10:31:25.579Z,983.89
2023-03-10T10:32:25.551Z,983.88
2023-03-10T10:33:25.491Z,983.86
2023-03-10T10:34:25.503Z,983.91
2023-03-10T10:35:25.533Z,983.93
2023-03-10T10:36:25.512Z,983.97
2023-03-10T10:37:25.514Z,983.95
2023-03-10T10:38:25.523Z,983.94
2023-03-10T10:39:27.907Z,983.96
2023-03-10T10:40:25.545Z,983.93
2023-03-10T10:41:25.548Z,983.89
2023-03-10T10:42:25.583Z,983.82
2023-03-10T10:43:25.564Z,983.81
2023-03-10T10:44:25.562Z,983.75
2023-03-10T10:45:25.570Z,983.77
2023-03-10T10:46:25.607Z,983.80
2023-03-10T10:47:25.584Z,983.80
2023-03-10T10:48:25.588Z,983.78
2023-03-10T10:49:25.601Z,983.69
2023-03-10T10:50:25.622Z,983.69
2023-03-10T10:51:25.635Z,983.65
2023-03-10T10:52:25.616Z,983.65
2023-03-10T10:53:25.621Z,983.64
2023-03-10T10:54:25.636Z,983.71
2023-03-10T10:55:25.633Z,983.65
2023-03-10T10:56:25.657Z,983.71
2023-03-10T10:57:25.652Z,983.70
2023-03-10T10:58:25.663Z,983.67
2023-03-10T10:59:25.676Z,983.65
2023-03-10T11:00:25.714Z,983.62
2023-03-10T11:01:25.713Z,983.61
2023-03-10T11:02:25.721Z,983.55
2023-03-10T11:03:25.705Z,983.55
2023-03-10T11:04:25.710Z,983.58
2023-03-10T11:05:25.718Z,983.51
2023-03-10T11:06:25.727Z,983.50
2023-03-10T11:07:25.759Z,983.59
2023-03-10T11:08:25.738Z,983.52
2023-03-10T11:09:25.752Z,983.56
2023-03-10T11:10:25.753Z,983.53
2023-03-10T11:11:25.770Z,983.55
2023-03-10T11:12:25.770Z,983.53
2023-03-10T11:13:25.791Z,983.49
2023-03-10T11:14:25.796Z,983.48
2023-03-10T11:15:25.826Z,983.48
2023-03-10T11:16:25.818Z,983.48
2023-03-10T11:17:25.825Z,983.44
2023-03-10T11:18:25.840Z,983.40
2023-03-10T11:19:25.841Z,983.42
2023-03-10T11:20:25.873Z,983.41
2023-03-10T11:21:25.862Z,983.42
2023-03-10T11:22:25.871Z,983.41
2023-03-10T11:23:25.968Z,983.44
2023-03-10T11:24:26.070Z,983.46
2023-03-10T11:25:25.918Z,983.38
2023-03-10T11:26:25.921Z,983.44
2023-03-10T11:27:25.927Z,983.38
2023-03-10T11:28:25.940Z,983.41
2023-03-10T11:29:25.977Z,983.34
2023-03-10T11:30:26.125Z,983.36
2023-03-10T11:31:26.104Z,983.35
2023-03-10T11:32:26.025Z,983.33
2023-03-10T11:33:25.999Z,983.34
2023-03-10T11:34:26.005Z,983.30
2023-03-10T11:35:26.021Z,983.28
2023-03-10T11:36:26.027Z,983.28
2023-03-10T11:37:26.033Z,983.23
2023-03-10T11:38:26.048Z,983.23
2023-03-10T11:39:26.115Z,983.25
2023-03-10T11:40:26.065Z,983.24
2023-03-10T11:41:26.078Z,983.22
2023-03-10T11:42:26.321Z,983.19
2023-03-10T11:43:26.095Z,983.18
2023-03-10T11:44:26.111Z,983.24
2023-03-10T11:45:26.114Z,983.19
2023-03-10T11:46:26.217Z,983.18
2023-03-10T11:47:26.140Z,983.15
2023-03-10T11:48:26.148Z,983.12
2023-03-10T11:49:26.166Z,983.16
2023-03-10T11:50:26.167Z,983.15
2023-03-10T11:51:26.172Z,983.13
2023-03-10T11:52:26.179Z,983.13
2023-03-10T11:53:26.188Z,983.11
2023-03-10T11:54:27.000Z,983.05
2023-03-10T11:55:26.238Z,983.08
2023-03-10T11:56:26.218Z,983.10
2023-03-10T11:57:26.227Z,983.13
2023-03-10T11:58:26.250Z,983.04
2023-03-10T11:59:26.254Z,983.08
2023-03-10T12:00:26.258Z,983.09
2023-03-10T12:01:26.272Z,983.07
2023-03-10T12:02:26.279Z,983.01
2023-03-10T12:03:26.304Z,983.04
2023-03-10T12:04:26.299Z,983.05
2023-03-10T12:05:26.363Z,983.02
2023-03-10T12:06:26.878Z,983.01
2023-03-10T12:07:26.319Z,983.03
2023-03-10T12:08:26.351Z,983.04
2023-03-10T12:09:26.340Z,983.00
2023-03-10T12:10:26.349Z,983.00
2023-03-10T12:11:26.385Z,983.09
2023-03-10T12:12:26.369Z,983.07
2023-03-10T12:13:26.374Z,983.08
2023-03-10T12:14:26.393Z,983.09
2023-03-10T12:15:26.396Z,983.10
2023-03-10T12:16:26.496Z,983.09
2023-03-10T12:17:26.420Z,983.05
2023-03-10T12:18:27.048Z,983.07
2023-03-10T12:19:26.433Z,983.05
2023-03-10T12:20:26.452Z,983.05
2023-03-10T12:21:26.533Z,983.06
2023-03-10T12:22:26.459Z,983.04
2023-03-10T12:23:26.473Z,982.97
2023-03-10T12:24:26.478Z,983.00
2023-03-10T12:25:26.510Z,983.00
2023-03-10T12:26:26.509Z,983.00
2023-03-10T12:27:26.530Z,982.94
2023-03-10T12:28:26.531Z,982.94
2023-03-10T12:29:26.537Z,982.89
2023-03-10T12:30:26.549Z,982.92
2023-03-10T12:31:26.600Z,982.90
2023-03-10T12:32:26.594Z,982.95
2023-03-10T12:33:26.578Z,982.93
2023-03-10T12:34:26.588Z,982.92
2023-03-10T12:35:26.591Z,982.90